Hovedside
METAR-TAF:

METAR-TAF

Lufthavner :

Båtsfjord lufthavn

Båtsfjord, Norge

breddegrad: 70-38N, lengdegrad: 029-44E, høyde over havet: 10 m

Gjeldene værobservasjon

Denne rapporten ble laget for 25 minutter siden, klokken 21:50 UTC
Vind 22 kt fra Nord-nordvest
Temperatur -2°C
Luftfuktighet 86%
Trykk 992 hPa
Sikt: 4000 m
Spredte skyer i en høyde av 1600 ft
Spredte skyer i en høyde av 2200 ft
Brutte skyer i en høyde av 3100 ft
lette snøbyger, (lett) , snø

METAR: ENBS 242150Z 34022KT 4000 -SHSN -DRSN SCT016 SCT022 BKN031 M02/M04 Q0992

Tid: 23:15 (22:15 UTC)


TAF: fraværende

Værobservasjoner og værvarsel for over 4000 flyplasser (METAR- og TAF-rapporter).

Tilgjengelige stasjoner er representert av de røde og gule prikkene på kartet.

Hold musepekeren over prikken for å se navnet på stasjonen.

Klikk så for å se værobservasjoner og -varsler.

For å forandre kartet kan du klikke på den grønne knappen med svart kryss for å zoome inn, på den grønne knappen med strek for å zoome ut, eller på de grønne pilene for å se tilstøtende kart.


METAR-TAF: